Archival Weather

Bob Hope

Burbank, California (KBUR)

Report from: Monday, January 29, 2024 9:53 PM PST
Current time: Friday, June 14, 2024 6:24 AM PDT

Current weather – Weather history – Daily summaries
Weather forecast

Temperature16.1°C (61.0°F)
Dew point3.9°C (39.0°F)
Winds 6 kts (3.1 m/s, 6.9 mph) West-Northwest (290°)
Visibility10 mi. (16.1 km)
Clouds Sky clear
Altimeter30.08 in.Hg (1019 mB)
Relative humidity44 %
Density altitude100 ft. (31 m)
Sea-level pressure101.8 kPa (1018 mB, 30.05 in.Hg)
Max temp last 6 hours24.4°C (75.9°F)
Min temp last 6 hours15.6°C (60.1°F)
Remarks Automated weather observing station with precipitation discriminator
Pressure rising more slowly
Flight conditions Visual Meteorological Conditions
Raw dataKBUR 300553Z 29006KT 10SM CLR 16/04 A3008 RMK AO2 SLP177 T01610039 10244 20156 51005
An error has occurred. This application may no longer respond until reloaded. Reload 🗙